Terminal Aerodrome Forecast
Issued by NWS

Current Version | Previous Version | Text Only | Print | Product List | Glossary On
Versions: 1 2 3 4 5 6 7 8 9 10 11 12 13 14 15
000
FTAK31 PAFA 301130
TAFAGA
TAF
PAGA 301130Z 3012/0112 00000KT P6SM FEW090
     FM302100 05006KT P6SM VCSH BKN050 BKN100 BKN200
     FM010700 VRB04KT P6SM BKN100=

USA.gov is the U.S. government's official web portal to all federal, state and local government web resources and services.